Time;durP1;ratioP1;P1;durP2;ratioP2;P2;SDS_P1;SDS_P2;PMS_P1;PMS_P2;Temp;Humidity;BMP_temperature;BMP_pressure;BME280_temperature;BME280_humidity;BME280_pressure;Samples;Min_cycle;Max_cycle;Signal;HPM_P1;HPM_P2
2021/11/26 00:01:50;;;;;;;29.40;16.43;;;;;;;4.01;81.51;97290.56;4893690;29;21256;-89
2021/11/26 00:04:20;;;;;;;32.43;17.83;;;;;;;3.98;81.72;97270.09;4890620;29;20746;-88
2021/11/26 00:06:48;;;;;;;33.97;17.03;;;;;;;3.98;80.68;97275.25;4893701;29;20665;-88
2021/11/26 00:09:16;;;;;;;34.20;18.67;;;;;;;3.97;81.66;97268.41;4893117;29;20623;-88
2021/11/26 00:11:44;;;;;;;35.30;17.87;;;;;;;4.00;82.09;97255.34;4892944;29;21194;-89
2021/11/26 00:14:16;;;;;;;30.57;16.97;;;;;;;4.02;81.67;97261.28;4887094;29;20738;-88
2021/11/26 00:16:45;;;;;;;37.40;18.30;;;;;;;4.01;81.63;97249.28;4886819;29;20644;-89
2021/11/26 00:19:15;;;;;;;31.90;17.77;;;;;;;3.99;82.95;97246.81;4871612;29;20688;-88
2021/11/26 00:21:43;;;;;;;34.20;18.60;;;;;;;4.00;82.16;97243.31;4895807;29;20631;-88
2021/11/26 00:24:13;;;;;;;33.00;17.07;;;;;;;3.99;81.42;97235.66;4902494;29;20642;-89
2021/11/26 00:26:41;;;;;;;29.60;16.00;;;;;;;3.98;82.42;97229.66;4910347;29;20645;-88
2021/11/26 00:29:09;;;;;;;40.03;21.47;;;;;;;3.97;81.90;97227.16;4901590;29;20632;-88
2021/11/26 00:31:38;;;;;;;37.20;18.60;;;;;;;3.98;82.13;97221.09;4879814;29;20628;-88
2021/11/26 00:34:07;;;;;;;39.70;19.10;;;;;;;3.96;81.30;97215.22;4909518;29;21582;-88
2021/11/26 00:36:37;;;;;;;33.67;17.10;;;;;;;3.94;82.49;97214.44;4878891;29;21274;-88
2021/11/26 00:39:05;;;;;;;35.27;17.63;;;;;;;3.92;82.09;97218.88;4906993;29;20757;-88
2021/11/26 00:41:34;;;;;;;31.17;17.10;;;;;;;3.94;82.63;97206.72;4910621;29;20646;-88
2021/11/26 00:44:03;;;;;;;37.03;19.50;;;;;;;3.94;82.08;97204.13;4907860;29;20650;-88
2021/11/26 00:46:32;;;;;;;35.70;19.87;;;;;;;3.95;82.39;97204.03;4909338;29;21014;-88
2021/11/26 00:49:00;;;;;;;36.37;19.17;;;;;;;3.97;82.14;97202.22;4879125;29;20695;-89
2021/11/26 00:51:30;;;;;;;39.70;20.47;;;;;;;4.00;82.28;97204.63;4893745;29;20654;-88
2021/11/26 00:54:00;;;;;;;39.80;19.97;;;;;;;4.02;81.51;97204.53;4895201;29;20638;-89
2021/11/26 00:56:29;;;;;;;36.90;20.73;;;;;;;4.08;81.51;97199.03;4908482;29;21199;-88
2021/11/26 00:58:57;;;;;;;32.60;17.97;;;;;;;4.09;80.96;97196.38;4876772;29;21207;-89
2021/11/26 01:01:25;;;;;;;32.80;18.10;;;;;;;4.11;82.14;97194.53;4908407;29;20730;-88
2021/11/26 01:03:54;;;;;;;36.60;18.70;;;;;;;4.13;82.74;97191.84;4891835;29;21042;-88
2021/11/26 01:06:23;;;;;;;34.57;18.63;;;;;;;4.15;82.35;97192.59;4875504;29;20670;-88
2021/11/26 01:08:51;;;;;;;35.50;19.03;;;;;;;4.16;83.16;97186.53;4879650;29;20639;-88
2021/11/26 01:11:21;;;;;;;30.23;17.57;;;;;;;4.16;82.46;97181.38;4879549;29;20642;-88
2021/11/26 01:13:49;;;;;;;37.17;18.27;;;;;;;4.17;83.39;97188.19;4879776;29;20766;-88
2021/11/26 01:16:18;;;;;;;32.90;17.30;;;;;;;4.16;83.14;97187.34;4897253;29;20714;-89
2021/11/26 01:18:46;;;;;;;32.07;16.20;;;;;;;4.16;83.06;97186.53;4881758;29;21360;-88
2021/11/26 01:21:14;;;;;;;33.30;17.63;;;;;;;4.14;83.07;97189.19;4878013;29;20647;-89
2021/11/26 01:23:43;;;;;;;32.77;18.17;;;;;;;4.12;82.63;97190.19;4887589;29;21018;-88
2021/11/26 01:26:11;;;;;;;29.73;17.53;;;;;;;4.12;82.29;97190.19;4887870;29;21246;-88
2021/11/26 01:28:40;;;;;;;37.43;19.10;;;;;;;4.12;82.99;97187.59;4893206;29;20639;-88
2021/11/26 01:31:08;;;;;;;37.40;19.10;;;;;;;4.10;82.20;97184.28;4908910;29;20762;-88
2021/11/26 01:33:38;;;;;;;36.67;18.90;;;;;;;4.06;83.56;97173.34;4896861;29;20999;-89
2021/11/26 01:36:06;;;;;;;34.37;19.27;;;;;;;4.05;82.97;97168.25;4889220;29;23531;-88
2021/11/26 01:38:34;;;;;;;31.87;17.53;;;;;;;4.07;82.11;97171.56;4877656;29;21187;-89
2021/11/26 01:41:04;;;;;;;37.57;19.30;;;;;;;4.09;82.24;97169.72;4898337;29;20661;-88
2021/11/26 01:43:32;;;;;;;40.17;19.90;;;;;;;4.12;82.17;97170.41;4895884;29;21269;-88
2021/11/26 01:46:07;;;;;;;35.30;18.47;;;;;;;4.12;82.27;97169.56;4895489;29;20674;-89
2021/11/26 01:48:37;;;;;;;35.27;18.80;;;;;;;4.12;82.27;97162.66;4895957;29;20641;-88
2021/11/26 01:51:06;;;;;;;38.53;19.67;;;;;;;4.14;81.74;97167.75;4879377;29;20642;-88
2021/11/26 01:53:34;;;;;;;34.57;18.50;;;;;;;4.15;82.08;97171.94;4913440;29;20741;-88
2021/11/26 01:56:03;;;;;;;36.33;19.63;;;;;;;4.14;81.80;97157.41;4892678;29;20631;-88
2021/11/26 01:58:31;;;;;;;41.27;18.40;;;;;;;4.12;82.21;97154.94;4907116;29;20632;-89
2021/11/26 02:01:02;;;;;;;37.17;18.57;;;;;;;4.09;81.98;97152.53;4890008;29;20679;-88
2021/11/26 02:03:32;;;;;;;37.70;18.73;;;;;;;4.09;82.42;97146.50;4879118;29;20639;-89
2021/11/26 02:06:00;;;;;;;33.87;18.70;;;;;;;4.11;83.12;97144.69;4911196;29;20662;-88
2021/11/26 02:08:28;;;;;;;37.40;19.70;;;;;;;4.08;83.21;97147.44;4888402;29;20651;-88
2021/11/26 02:10:57;;;;;;;36.27;19.07;;;;;;;4.12;83.28;97138.59;4892939;29;20658;-88
2021/11/26 02:13:26;;;;;;;32.60;17.10;;;;;;;4.12;83.84;97143.75;4893134;29;20643;-88
2021/11/26 02:15:54;;;;;;;38.97;19.30;;;;;;;4.15;84.04;97141.00;4891765;29;20643;-88
2021/11/26 02:18:23;;;;;;;33.97;18.17;;;;;;;4.13;84.45;97146.25;4896211;29;21189;-88
2021/11/26 02:20:52;;;;;;;35.33;18.20;;;;;;;4.12;84.13;97144.59;4889705;29;20667;-88
2021/11/26 02:23:21;;;;;;;32.93;18.23;;;;;;;4.11;83.76;97135.19;4890248;29;20619;-88
2021/11/26 02:25:49;;;;;;;35.77;18.00;;;;;;;4.07;83.54;97131.13;4888211;29;21368;-88
2021/11/26 02:28:18;;;;;;;34.83;19.20;;;;;;;4.07;84.48;97127.72;4871734;29;20628;-88
2021/11/26 02:30:47;;;;;;;33.53;17.67;;;;;;;4.05;83.06;97129.56;4903542;29;21128;-88
2021/11/26 02:33:17;;;;;;;35.70;18.50;;;;;;;4.05;84.45;97127.81;4904479;29;21305;-88
2021/11/26 02:35:47;;;;;;;41.27;20.00;;;;;;;4.09;84.70;97120.72;4876612;29;20631;-88
2021/11/26 02:38:17;;;;;;;43.13;21.13;;;;;;;4.12;83.94;97125.69;4905468;29;21036;-88
2021/11/26 02:40:46;;;;;;;37.43;19.73;;;;;;;4.14;83.68;97123.88;4904637;29;20648;-88
2021/11/26 02:43:14;;;;;;;42.43;21.53;;;;;;;4.13;83.22;97124.78;4889774;29;20639;-88
2021/11/26 02:45:44;;;;;;;40.77;20.73;;;;;;;4.15;83.40;97115.19;4903339;29;21029;-88
2021/11/26 02:48:13;;;;;;;46.30;21.40;;;;;;;4.15;83.45;97117.78;4894252;29;20667;-88
2021/11/26 02:50:43;;;;;;;42.30;22.90;;;;;;;4.15;82.87;97102.31;4879841;29;20634;-88
2021/11/26 02:53:11;;;;;;;35.00;20.03;;;;;;;4.16;83.23;97107.38;4880166;29;21022;-88
2021/11/26 02:55:41;;;;;;;44.70;22.60;;;;;;;4.16;83.08;97112.53;4906315;29;20731;-88
2021/11/26 02:58:09;;;;;;;39.67;21.13;;;;;;;4.11;82.90;97108.59;4890434;29;20766;-88
2021/11/26 03:00:40;;;;;;;44.90;24.07;;;;;;;4.12;83.43;97107.66;4887498;29;20661;-88
2021/11/26 03:03:09;;;;;;;43.43;23.80;;;;;;;4.12;83.08;97103.34;4908092;29;20631;-88
2021/11/26 03:05:37;;;;;;;43.00;22.47;;;;;;;4.12;84.04;97099.91;4900376;29;20655;-88
2021/11/26 03:08:06;;;;;;;47.37;23.40;;;;;;;4.12;83.46;97098.19;4891270;29;20632;-88
2021/11/26 03:10:36;;;;;;;43.80;22.10;;;;;;;4.14;83.08;97090.34;4894108;29;20631;-89
2021/11/26 03:13:08;;;;;;;49.17;23.13;;;;;;;4.13;82.88;97084.34;4902686;29;20643;-88
2021/11/26 03:15:39;;;;;;;46.30;23.47;;;;;;;4.15;83.31;97092.84;4875391;29;20749;-88
2021/11/26 03:18:08;;;;;;;47.63;24.50;;;;;;;4.12;82.89;97081.84;4893255;29;20653;-88
2021/11/26 03:20:36;;;;;;;48.00;23.00;;;;;;;4.14;83.52;97086.00;4878123;29;20666;-88
2021/11/26 03:23:05;;;;;;;46.80;23.83;;;;;;;4.15;83.05;97082.53;4909337;29;20730;-88
2021/11/26 03:25:33;;;;;;;45.47;24.70;;;;;;;4.15;83.28;97076.50;4880357;29;20678;-88
2021/11/26 03:28:01;;;;;;;43.67;25.10;;;;;;;4.16;84.03;97084.16;4891543;29;21017;-88
2021/11/26 03:30:30;;;;;;;47.17;23.83;;;;;;;4.11;83.81;97069.91;4876148;29;20657;-89
2021/11/26 03:33:00;;;;;;;55.00;26.07;;;;;;;4.13;83.53;97065.47;4909687;29;20646;-87
2021/11/26 03:35:28;;;;;;;48.10;24.13;;;;;;;4.15;83.74;97055.88;4890405;29;20647;-88
2021/11/26 03:37:56;;;;;;;49.93;26.07;;;;;;;4.17;83.67;97060.03;4901601;29;21263;-88
2021/11/26 03:40:25;;;;;;;47.50;25.77;;;;;;;4.14;84.09;97055.06;4892338;29;20656;-88
2021/11/26 03:42:54;;;;;;;50.80;25.10;;;;;;;4.17;83.78;97046.31;4887758;29;20782;-88
2021/11/26 03:45:25;;;;;;;48.60;25.50;;;;;;;4.16;84.26;97042.88;4883227;29;20650;-89
2021/11/26 03:47:55;;;;;;;48.77;26.70;;;;;;;4.19;83.98;97039.31;4890966;29;21153;-88
2021/11/26 03:50:24;;;;;;;49.27;25.30;;;;;;;4.16;84.24;97042.88;4878082;29;21230;-88
2021/11/26 03:52:52;;;;;;;42.43;23.70;;;;;;;4.14;83.73;97041.34;4888559;29;20652;-88
2021/11/26 03:55:23;;;;;;;52.77;26.70;;;;;;;4.10;83.49;97032.94;4892208;29;20640;-88
2021/11/26 03:57:52;;;;;;;52.70;25.93;;;;;;;4.09;83.75;97023.56;4895722;29;20733;-88
2021/11/26 04:00:20;;;;;;;50.60;25.83;;;;;;;4.08;84.10;97013.34;4876158;29;21222;-88
2021/11/26 04:02:49;;;;;;;52.37;26.77;;;;;;;4.09;83.94;97010.66;4882822;29;20643;-88
2021/11/26 04:05:19;;;;;;;56.27;27.33;;;;;;;4.06;83.89;97018.59;4899763;29;20647;-89
2021/11/26 04:07:47;;;;;;;49.37;27.10;;;;;;;4.06;84.16;97020.31;4886900;29;20632;-88
2021/11/26 04:10:17;;;;;;;55.30;27.83;;;;;;;4.05;84.71;97023.84;4901704;29;20662;-88
2021/11/26 04:12:47;;;;;;;51.10;26.30;;;;;;;3.99;84.44;97013.88;4896297;29;20641;-88
2021/11/26 04:15:16;;;;;;;59.07;28.90;;;;;;;4.01;84.34;97014.63;4876563;29;20658;-88
2021/11/26 04:17:47;;;;;;;58.50;30.00;;;;;;;3.99;85.73;97004.38;4891453;29;21195;-88
2021/11/26 04:20:18;;;;;;;53.53;27.70;;;;;;;3.97;86.08;96997.66;4889478;29;20686;-88
2021/11/26 04:22:47;;;;;;;56.40;28.23;;;;;;;3.93;86.39;96991.03;4903481;29;20646;-88
2021/11/26 04:25:17;;;;;;;54.10;28.30;;;;;;;3.91;86.20;96996.28;4890150;29;20647;-88
2021/11/26 04:27:45;;;;;;;61.43;29.10;;;;;;;3.92;85.90;96991.97;4892050;29;21226;-88
2021/11/26 04:30:14;;;;;;;58.50;27.90;;;;;;;3.91;85.98;96990.28;4880892;29;20643;-88
2021/11/26 04:32:42;;;;;;;57.23;29.27;;;;;;;3.89;86.40;96992.13;4906264;29;20731;-89
2021/11/26 04:35:11;;;;;;;59.70;29.63;;;;;;;3.88;86.37;96987.94;4891039;29;20651;-88
2021/11/26 04:37:41;;;;;;;61.63;29.67;;;;;;;3.89;85.67;96987.84;4898137;29;20744;-88
2021/11/26 04:40:11;;;;;;;52.10;27.60;;;;;;;3.90;86.31;96983.50;4891160;29;21209;-89
2021/11/26 04:42:41;;;;;;;62.63;29.13;;;;;;;3.92;86.15;96979.06;4880048;29;21200;-89
2021/11/26 04:45:11;;;;;;;57.97;28.67;;;;;;;3.92;86.00;96974.72;4888305;29;20642;-88
2021/11/26 04:47:40;;;;;;;58.87;29.03;;;;;;;3.94;86.10;96979.78;4902013;29;20650;-89
2021/11/26 04:50:09;;;;;;;57.33;28.70;;;;;;;3.94;85.61;96972.06;4889149;29;21184;-89
2021/11/26 04:52:38;;;;;;;57.30;29.67;;;;;;;3.92;85.85;96973.91;4875581;29;20665;-89
2021/11/26 04:55:09;;;;;;;55.47;28.93;;;;;;;3.93;86.03;96962.69;4902793;29;20644;-89
2021/11/26 04:57:37;;;;;;;61.60;29.20;;;;;;;3.94;85.75;96972.91;4906029;29;21198;-89
2021/11/26 05:00:07;;;;;;;64.73;30.77;;;;;;;3.96;85.89;96970.22;4874395;29;20632;-89
2021/11/26 05:02:35;;;;;;;60.23;28.90;;;;;;;3.97;85.85;96964.13;4905312;29;20743;-89
2021/11/26 05:05:03;;;;;;;55.30;29.20;;;;;;;4.01;86.05;96956.13;4877735;29;20645;-89
2021/11/26 05:07:31;;;;;;;56.33;29.40;;;;;;;4.03;86.02;96964.63;4892511;29;20747;-89
2021/11/26 05:10:00;;;;;;;59.50;29.80;;;;;;;4.01;85.81;96958.69;4902180;29;20639;-88
2021/11/26 05:12:33;;;;;;;60.27;31.30;;;;;;;4.04;85.92;96952.53;4891573;29;21329;-89
2021/11/26 05:15:02;;;;;;;60.23;30.70;;;;;;;4.06;86.27;96943.78;4873414;29;20639;-89
2021/11/26 05:17:30;;;;;;;60.80;29.00;;;;;;;4.07;85.15;96942.03;4901680;29;21003;-89
2021/11/26 05:19:58;;;;;;;62.03;31.53;;;;;;;4.09;86.16;96947.91;4909102;29;20664;-89
2021/11/26 05:22:26;;;;;;;61.10;31.00;;;;;;;4.08;85.59;96951.44;4876372;29;20663;-89
2021/11/26 05:24:54;;;;;;;60.53;30.70;;;;;;;4.08;85.40;96947.09;4910094;29;20650;-89
2021/11/26 05:27:22;;;;;;;70.30;31.43;;;;;;;4.09;86.68;96953.06;4913091;29;20642;-89
2021/11/26 05:29:52;;;;;;;60.73;30.17;;;;;;;4.09;85.68;96951.34;4881749;29;20652;-89
2021/11/26 05:32:20;;;;;;;66.63;31.80;;;;;;;4.11;86.17;96953.84;4896408;29;21178;-89
2021/11/26 05:34:48;;;;;;;65.33;30.17;;;;;;;4.13;86.27;96955.38;4880299;29;20639;-89
2021/11/26 05:37:16;;;;;;;58.37;29.43;;;;;;;4.15;85.55;96952.69;4887529;29;20638;-89
2021/11/26 05:39:44;;;;;;;61.87;30.70;;;;;;;4.18;85.75;96952.50;4895293;29;20631;-89
2021/11/26 05:42:12;;;;;;;55.67;28.47;;;;;;;4.19;85.56;96942.09;4909068;29;20658;-88
2021/11/26 05:44:41;;;;;;;52.60;26.80;;;;;;;4.19;85.68;96943.88;4892174;29;20786;-88
2021/11/26 05:47:10;;;;;;;58.20;29.70;;;;;;;4.17;85.73;96933.63;4903242;29;20631;-89
2021/11/26 05:49:39;;;;;;;58.43;28.37;;;;;;;4.18;85.71;96932.72;4896886;29;20638;-89
2021/11/26 05:52:07;;;;;;;58.00;30.50;;;;;;;4.16;85.58;96929.41;4890835;29;20652;-89
2021/11/26 05:54:36;;;;;;;57.07;30.17;;;;;;;4.13;85.03;96929.59;4894065;29;20646;-89
2021/11/26 05:57:05;;;;;;;62.37;29.33;;;;;;;4.17;85.03;96925.09;4889393;29;20654;-89
2021/11/26 05:59:33;;;;;;;67.73;29.70;;;;;;;4.17;84.89;96927.66;4883287;29;21065;-89
2021/11/26 06:02:02;;;;;;;61.10;30.40;;;;;;;4.15;85.65;96922.59;4895161;29;20663;-88
2021/11/26 06:04:32;;;;;;;59.53;28.60;;;;;;;4.18;85.89;96924.13;4893410;29;20631;-89
2021/11/26 06:07:00;;;;;;;55.00;28.87;;;;;;;4.19;84.97;96918.06;4894428;29;20689;-89
2021/11/26 06:09:28;;;;;;;58.70;29.17;;;;;;;4.19;84.88;96916.31;4892042;29;21187;-88
2021/11/26 06:11:56;;;;;;;60.83;29.57;;;;;;;4.23;84.67;96920.38;4876355;29;20631;-89
2021/11/26 06:14:24;;;;;;;54.63;29.53;;;;;;;4.23;84.91;96916.03;4877082;29;20738;-88
2021/11/26 06:16:53;;;;;;;54.97;28.27;;;;;;;4.25;85.32;96915.94;4895720;29;20662;-88
2021/11/26 06:19:21;;;;;;;55.00;29.73;;;;;;;4.27;85.53;96917.50;4894237;29;20998;-89
2021/11/26 06:21:50;;;;;;;61.20;29.87;;;;;;;4.26;84.83;96913.25;4889848;29;20662;-88
2021/11/26 06:24:18;;;;;;;58.47;30.83;;;;;;;4.24;84.39;96917.69;4905603;29;20701;-89
2021/11/26 06:26:46;;;;;;;57.03;28.50;;;;;;;4.24;84.91;96920.25;4899081;29;20646;-89
2021/11/26 06:29:15;;;;;;;63.50;30.93;;;;;;;4.23;84.81;96915.19;4889435;29;20667;-89
2021/11/26 06:31:43;;;;;;;57.13;28.50;;;;;;;4.21;84.76;96909.31;4884609;29;20647;-90
2021/11/26 06:34:11;;;;;;;62.50;29.77;;;;;;;4.20;84.83;96903.31;4902133;29;21203;-94
2021/11/26 06:36:39;;;;;;;58.43;28.50;;;;;;;4.21;84.94;96912.72;4906792;29;20631;-93
2021/11/26 06:39:09;;;;;;;59.30;30.90;;;;;;;4.24;85.50;96911.72;4887303;29;20714;-92
2021/11/26 06:41:37;;;;;;;57.33;27.47;;;;;;;4.24;84.71;96906.56;4909472;29;20658;-93
2021/11/26 06:44:06;;;;;;;58.70;29.37;;;;;;;4.24;85.79;96902.22;4880314;29;20635;-93
2021/11/26 06:46:34;;;;;;;66.40;31.20;;;;;;;4.24;84.80;96897.03;4896729;29;20635;-94
2021/11/26 06:49:02;;;;;;;61.30;30.17;;;;;;;4.23;84.78;96890.22;4878157;29;20671;-90
2021/11/26 06:51:31;;;;;;;58.47;29.57;;;;;;;4.24;84.83;96885.91;4896490;29;20634;-88
2021/11/26 06:53:59;;;;;;;62.23;29.93;;;;;;;4.27;85.14;96883.16;4882861;29;20718;-92
2021/11/26 06:56:29;;;;;;;63.60;30.77;;;;;;;4.28;85.52;96883.03;4881073;29;20647;-93
2021/11/26 07:15:20;;;;;;;58.10;30.00;;;;;;;4.17;84.59;96882.06;4928688;29;20657;-92
2021/11/26 07:17:48;;;;;;;61.13;29.00;;;;;;;4.15;85.71;96870.16;4946686;29;20637;-92
2021/11/26 07:20:17;;;;;;;61.10;27.93;;;;;;;4.15;84.99;96870.16;4927066;29;20725;-93
2021/11/26 07:22:45;;;;;;;65.30;30.57;;;;;;;4.17;85.25;96864.00;4933231;29;20649;-92
2021/11/26 07:25:14;;;;;;;60.17;31.20;;;;;;;4.20;85.75;96858.66;4913518;29;20661;-93
2021/11/26 07:27:42;;;;;;;61.90;29.27;;;;;;;4.21;85.57;96857.72;4918356;29;20737;-93
2021/11/26 07:30:13;;;;;;;58.20;28.43;;;;;;;4.22;85.34;96857.63;4919752;28;20648;-96
2021/11/26 07:32:43;;;;;;;58.77;29.33;;;;;;;4.20;85.08;96851.72;4938118;29;20763;-95
2021/11/26 07:35:13;;;;;;;69.43;30.63;;;;;;;4.23;84.85;96853.28;4920635;29;20889;-94
2021/11/26 07:37:41;;;;;;;63.57;29.70;;;;;;;4.26;84.16;96848.75;4930653;29;20725;-93
2021/11/26 07:40:15;;;;;;;61.80;29.80;;;;;;;4.27;84.59;96840.09;4904702;29;20641;-94
2021/11/26 07:42:45;;;;;;;60.20;28.70;;;;;;;4.30;84.30;96845.06;4904056;29;20658;-93
2021/11/26 07:45:13;;;;;;;63.17;29.87;;;;;;;4.32;85.12;96843.22;4938192;29;21220;-93
2021/11/26 07:47:43;;;;;;;63.83;29.93;;;;;;;4.32;83.77;96838.03;4920566;29;20634;-94
2021/11/26 07:50:12;;;;;;;58.70;29.40;;;;;;;4.36;83.76;96841.25;4920795;29;20658;-93
2021/11/26 07:52:42;;;;;;;60.50;30.57;;;;;;;4.36;83.78;96838.66;4923621;29;20636;-93
2021/11/26 07:55:11;;;;;;;57.40;29.70;;;;;;;4.36;84.36;96834.34;4923572;29;20672;-93
2021/11/26 07:57:45;;;;;;;56.77;28.23;;;;;;;4.37;83.82;96828.25;4939492;29;20669;-94
2021/11/26 08:00:15;;;;;;;60.03;29.00;;;;;;;4.36;84.16;96818.88;4939402;29;20609;-92
2021/11/26 08:02:45;;;;;;;63.67;29.53;;;;;;;4.38;84.19;96817.00;4938993;29;20671;-93
2021/11/26 08:05:14;;;;;;;62.20;29.40;;;;;;;4.39;84.59;96816.09;4939707;29;20688;-96
2021/11/26 08:07:43;;;;;;;68.70;34.30;;;;;;;4.41;84.28;96816.81;4917598;29;20686;-93
2021/11/26 08:10:12;;;;;;;88.20;41.93;;;;;;;4.44;84.40;96821.78;4907676;29;20634;-94
2021/11/26 08:12:41;;;;;;;64.27;31.60;;;;;;;4.45;84.46;96815.69;4924107;29;20638;-94
2021/11/26 08:15:11;;;;;;;58.50;30.23;;;;;;;4.45;84.57;96810.53;4919583;29;20781;-94
2021/11/26 08:17:41;;;;;;;62.60;29.97;;;;;;;4.46;84.26;96809.59;4893936;29;20991;-94
2021/11/26 08:20:12;;;;;;;65.77;30.37;;;;;;;4.49;84.69;96808.56;4909648;29;20654;-95
2021/11/26 08:22:48;;;;;;;65.50;30.73;;;;;;;4.52;83.76;96808.38;4909389;29;20671;-94
2021/11/26 08:25:19;;;;;;;61.00;30.47;;;;;;;4.53;84.61;96816.03;4908956;29;20646;-94
2021/11/26 08:27:47;;;;;;;62.77;30.73;;;;;;;4.54;84.04;96802.19;4907545;29;20688;-94
2021/11/26 08:30:16;;;;;;;61.37;30.50;;;;;;;4.53;84.60;96797.94;4898356;29;21194;-94
2021/11/26 08:32:44;;;;;;;62.77;29.57;;;;;;;4.57;84.48;96790.81;4891785;29;20670;-94
2021/11/26 08:35:14;;;;;;;67.37;30.50;;;;;;;4.57;84.18;96786.50;4893561;29;20638;-93
2021/11/26 08:37:42;;;;;;;72.97;30.43;;;;;;;4.58;83.94;96777.00;4907542;29;20710;-93
2021/11/26 08:40:11;;;;;;;64.23;32.23;;;;;;;4.60;84.03;96775.13;4908878;29;20630;-94
2021/11/26 08:42:40;;;;;;;59.77;30.60;;;;;;;4.62;83.87;96773.31;4907879;29;20647;-94
2021/11/26 08:45:11;;;;;;;63.80;30.97;;;;;;;4.62;83.49;96774.13;4907434;29;22307;-93
2021/11/26 08:47:40;;;;;;;62.57;30.07;;;;;;;4.63;84.10;96770.63;4899173;29;20626;-96
2021/11/26 08:50:13;;;;;;;62.43;29.73;;;;;;;4.66;83.42;96769.56;4902272;29;20630;-96
2021/11/26 08:52:46;;;;;;;55.70;28.10;;;;;;;4.67;83.86;96760.91;4911583;29;20622;-96
2021/11/26 08:55:17;;;;;;;61.17;31.60;;;;;;;4.65;83.82;96761.00;4903363;29;20685;-96
2021/11/26 08:57:52;;;;;;;66.63;29.77;;;;;;;4.68;84.26;96760.81;4902756;29;20644;-95
2021/11/26 09:00:23;;;;;;;64.87;31.33;;;;;;;4.71;83.20;96760.59;4901149;29;20644;-96
2021/11/26 09:02:52;;;;;;;66.90;31.57;;;;;;;4.73;83.48;96761.31;4917559;29;20662;-96
2021/11/26 09:05:21;;;;;;;62.47;30.53;;;;;;;4.73;83.52;96756.16;4904747;29;21005;-96
2021/11/26 09:07:50;;;;;;;58.17;28.30;;;;;;;4.76;83.90;96761.13;4901559;29;21073;-94
2021/11/26 09:10:19;;;;;;;62.07;29.53;;;;;;;4.78;84.34;96749.78;4920513;29;20641;-96
2021/11/26 09:12:48;;;;;;;61.07;31.30;;;;;;;4.81;83.28;96748.72;4904238;29;20652;-96
2021/11/26 09:15:16;;;;;;;62.03;30.70;;;;;;;4.81;83.10;96749.56;4903124;29;20641;-96
2021/11/26 09:17:44;;;;;;;60.53;28.53;;;;;;;4.83;82.96;96746.88;4917369;29;20635;-96
2021/11/26 09:20:13;;;;;;;66.10;29.57;;;;;;;4.87;83.39;96748.31;4904540;29;20642;-96
2021/11/26 09:22:42;;;;;;;60.77;28.70;;;;;;;4.85;83.12;96742.44;4916286;29;20652;-96
2021/11/26 09:25:12;;;;;;;59.83;28.30;;;;;;;4.82;83.24;96747.78;4903222;29;20626;-96
2021/11/26 09:27:41;;;;;;;61.03;29.60;;;;;;;4.84;83.00;96744.19;4898337;29;20636;-96
2021/11/26 09:30:14;;;;;;;54.77;27.27;;;;;;;4.92;83.15;96735.94;4901884;29;20652;-96
2021/11/26 09:32:45;;;;;;;60.57;29.07;;;;;;;4.93;82.57;96740.16;4933154;29;21205;-96
2021/11/26 09:35:14;;;;;;;58.73;28.97;;;;;;;4.92;83.48;96736.75;4915638;29;20637;-96
2021/11/26 09:37:42;;;;;;;54.57;28.20;;;;;;;4.89;83.16;96734.38;4902893;29;20645;-96
2021/11/26 09:40:14;;;;;;;56.93;27.40;;;;;;;4.97;84.35;96734.66;4903143;29;20662;-96
2021/11/26 09:42:43;;;;;;;55.30;28.97;;;;;;;5.00;83.63;96734.47;4920438;29;21206;-96
2021/11/26 09:45:15;;;;;;;57.90;28.87;;;;;;;5.02;83.60;96731.78;4915259;29;20654;-96
2021/11/26 09:47:43;;;;;;;56.70;27.93;;;;;;;5.01;82.56;96723.22;4902833;29;21220;-96
2021/11/26 09:50:12;;;;;;;58.17;29.17;;;;;;;5.05;82.89;96723.81;4900646;29;20629;-96
2021/11/26 09:52:45;;;;;;;52.13;27.50;;;;;;;5.10;82.59;96720.00;4919560;29;20667;-94
2021/11/26 09:55:17;;;;;;;57.30;27.93;;;;;;;5.11;82.82;96705.31;4914932;29;21269;-94
2021/11/26 09:57:46;;;;;;;61.33;28.80;;;;;;;5.10;82.36;96703.66;4917600;29;20646;-94
2021/11/26 10:00:18;;;;;;;51.30;26.80;;;;;;;5.13;82.51;96698.28;4919493;29;20638;-94
2021/11/26 10:02:53;;;;;;;52.60;26.33;;;;;;;5.14;83.32;96693.84;4913251;29;20694;-94
2021/11/26 10:05:21;;;;;;;59.07;28.17;;;;;;;5.15;82.68;96685.13;4899362;29;20749;-94
2021/11/26 10:07:52;;;;;;;53.60;27.10;;;;;;;5.18;81.93;96679.75;4930550;29;20689;-94
2021/11/26 10:10:25;;;;;;;55.03;25.70;;;;;;;5.21;82.30;96679.53;4936622;29;20737;-95
2021/11/26 10:12:58;;;;;;;50.80;26.80;;;;;;;5.25;83.02;96675.00;4918204;29;20653;-95
2021/11/26 10:15:38;;;;;;;54.70;25.83;;;;;;;5.28;82.50;96665.28;4922152;29;20648;-94
2021/11/26 10:18:09;;;;;;;60.03;25.80;;;;;;;5.30;82.12;96665.16;4894219;29;20713;-93
2021/11/26 10:20:38;;;;;;;98.50;41.50;;;;;;;5.33;82.10;96660.59;4909300;29;20635;-94
2021/11/26 10:23:17;;;;;;;129.00;49.40;;;;;;;5.28;82.04;96651.53;4929646;29;20714;-92
2021/11/26 10:25:47;;;;;;;50.80;27.70;;;;;;;5.27;83.01;96650.69;4896909;29;20746;-92
2021/11/26 10:28:16;;;;;;;55.23;26.60;;;;;;;5.32;81.80;96646.03;4898771;29;20649;-93
2021/11/26 10:30:47;;;;;;;65.90;32.10;;;;;;;5.34;82.76;96641.59;4901062;29;20654;-93
2021/11/26 10:33:22;;;;;;;49.97;26.00;;;;;;;5.35;82.25;96643.25;4900109;29;20681;-93
2021/11/26 10:35:53;;;;;;;52.37;26.20;;;;;;;5.39;81.95;96643.84;4894120;29;20698;-93
2021/11/26 10:38:26;;;;;;;53.03;25.80;;;;;;;5.39;82.13;96652.41;4892969;29;20785;-93
2021/11/26 10:40:58;;;;;;;58.00;26.47;;;;;;;5.39;82.54;96636.09;4896130;29;21214;-93
2021/11/26 10:43:36;;;;;;;60.70;28.33;;;;;;;5.41;82.29;96632.47;4914002;29;20638;-93
2021/11/26 10:49:05;;;;;;;53.80;26.13;;;;;;;5.41;82.65;96621.28;4865109;29;21276;-93
2021/11/26 10:57:36;;;;;;;51.70;25.87;;;;;;;5.53;81.65;96610.88;4909881;29;20641;-93
2021/11/26 11:00:12;;;;;;;56.53;28.50;;;;;;;5.50;81.34;96595.59;4897699;29;20690;-93
2021/11/26 11:02:42;;;;;;;58.20;27.20;;;;;;;5.49;81.34;96599.13;4897525;29;20640;-91
2021/11/26 11:05:13;;;;;;;54.00;27.27;;;;;;;5.55;81.30;96603.88;4897226;29;21206;-94
2021/11/26 11:07:42;;;;;;;61.53;28.87;;;;;;;5.56;81.42;96595.16;4895030;29;20722;-94
2021/11/26 11:10:13;;;;;;;61.00;28.50;;;;;;;5.58;81.10;96589.88;4914527;29;21039;-95
2021/11/26 11:12:43;;;;;;;55.80;28.13;;;;;;;5.57;81.94;96583.88;4898522;29;20654;-95
2021/11/26 11:15:12;;;;;;;51.87;27.70;;;;;;;5.58;82.00;96577.78;4927162;29;20733;-95
2021/11/26 11:17:40;;;;;;;61.50;31.83;;;;;;;5.59;81.50;96574.25;4910886;29;21435;-96
2021/11/26 11:20:11;;;;;;;55.43;30.07;;;;;;;5.57;81.78;96565.78;4904332;29;20707;-95
2021/11/26 11:22:39;;;;;;;54.63;28.70;;;;;;;5.56;82.01;96556.38;4902256;29;21193;-95
2021/11/26 11:25:10;;;;;;;51.20;26.37;;;;;;;5.58;81.33;96551.94;4900074;29;20777;-95
2021/11/26 11:27:43;;;;;;;57.00;29.13;;;;;;;5.59;81.60;96545.81;4926741;29;20630;-95
2021/11/26 11:30:12;;;;;;;53.80;26.67;;;;;;;5.60;81.65;96552.63;4914304;29;20650;-95
2021/11/26 11:32:40;;;;;;;54.17;26.63;;;;;;;5.59;81.47;96543.22;4902048;29;20631;-95
2021/11/26 11:35:11;;;;;;;52.73;25.87;;;;;;;5.62;81.70;96537.81;4891866;29;20637;-96
2021/11/26 11:37:40;;;;;;;51.67;26.37;;;;;;;5.66;81.74;96539.25;4904235;29;20627;-95
2021/11/26 11:40:09;;;;;;;53.87;26.83;;;;;;;5.66;81.46;96534.91;4911399;29;20737;-96
2021/11/26 11:42:42;;;;;;;50.73;26.67;;;;;;;5.65;81.24;96528.09;4902383;29;21058;-96
2021/11/26 11:45:14;;;;;;;56.07;27.43;;;;;;;5.67;81.76;96528.00;4901411;29;20658;-95
2021/11/26 11:47:44;;;;;;;48.17;25.70;;;;;;;5.61;81.83;96515.50;4904654;29;20700;-96
2021/11/26 11:50:15;;;;;;;69.13;31.90;;;;;;;5.62;81.66;96506.81;4904373;29;20654;-96
2021/11/26 11:52:46;;;;;;;55.33;28.40;;;;;;;5.61;81.70;96512.94;4892875;29;20694;-96
2021/11/26 11:55:21;;;;;;;49.60;27.03;;;;;;;5.61;81.67;96510.34;4900035;29;20972;-96
2021/11/26 11:57:50;;;;;;;49.60;26.80;;;;;;;5.60;81.73;96501.75;4894083;29;20643;-96
2021/11/26 12:00:21;;;;;;;50.63;25.07;;;;;;;5.62;82.34;96501.63;4899637;29;20975;-95